createdAt,value
2023-03-05T00:00:54.704Z,20.60
2023-03-05T00:03:21.409Z,20.70
2023-03-05T00:05:48.192Z,20.80
2023-03-05T00:08:14.888Z,20.90
2023-03-05T00:10:41.596Z,21.00
2023-03-05T00:13:08.304Z,21.00
2023-03-05T00:15:41.249Z,21.10
2023-03-05T00:18:07.976Z,21.20
2023-03-05T00:20:35.080Z,21.20
2023-03-05T00:23:02.145Z,21.30
2023-03-05T00:25:28.862Z,21.30
2023-03-05T00:27:55.593Z,21.40
2023-03-05T00:30:22.286Z,21.40
2023-03-05T00:32:48.981Z,21.50
2023-03-05T00:35:15.714Z,21.50
2023-03-05T00:37:42.402Z,21.60
2023-03-05T00:40:10.391Z,21.60
2023-03-05T00:42:38.728Z,21.60
2023-03-05T00:45:08.045Z,21.60
2023-03-05T00:47:35.617Z,21.70
2023-03-05T00:50:03.591Z,21.70
2023-03-05T00:52:30.271Z,21.70
2023-03-05T00:54:57.058Z,21.70
2023-03-05T00:57:23.768Z,21.80
2023-03-05T00:59:50.492Z,21.80
2023-03-05T01:02:17.219Z,21.80
2023-03-05T01:04:47.044Z,21.80
2023-03-05T01:07:14.113Z,21.90
2023-03-05T01:09:40.848Z,21.90
2023-03-05T01:12:08.006Z,21.90
2023-03-05T01:14:35.864Z,21.90
2023-03-05T01:17:02.802Z,22.00
2023-03-05T01:19:29.685Z,21.90
2023-03-05T01:21:56.484Z,22.00
2023-03-05T01:24:23.317Z,22.00
2023-03-05T01:26:50.011Z,22.00
2023-03-05T01:29:16.817Z,22.00
2023-03-05T01:31:43.737Z,22.10
2023-03-05T01:34:10.511Z,22.10
2023-03-05T01:36:37.263Z,22.10
2023-03-05T01:39:04.194Z,22.10
2023-03-05T01:41:30.893Z,22.10
2023-03-05T01:43:57.706Z,22.10
2023-03-05T01:46:36.485Z,22.10
2023-03-05T01:49:11.849Z,22.10
2023-03-05T01:51:53.958Z,22.10
2023-03-05T01:54:24.550Z,22.20
2023-03-05T01:56:53.022Z,22.20
2023-03-05T01:59:20.627Z,22.20
2023-03-05T02:01:50.543Z,22.20
2023-03-05T02:04:20.078Z,22.20
2023-03-05T02:06:47.429Z,22.30
2023-03-05T02:09:14.524Z,22.30
2023-03-05T02:11:42.301Z,22.30
2023-03-05T02:14:10.366Z,22.30
2023-03-05T02:16:38.474Z,22.30
2023-03-05T02:19:08.444Z,22.30
2023-03-05T02:21:45.598Z,22.30
2023-03-05T02:24:14.111Z,22.30
2023-03-05T02:26:41.044Z,22.30
2023-03-05T02:29:10.309Z,22.30
2023-03-05T02:31:39.004Z,22.40
2023-03-05T02:34:06.356Z,22.40
2023-03-05T02:36:33.515Z,22.40
2023-03-05T02:39:00.487Z,22.40
2023-03-05T02:41:27.673Z,22.40
2023-03-05T02:43:54.429Z,22.40
2023-03-05T02:46:21.277Z,22.40
2023-03-05T02:48:48.092Z,22.40
2023-03-05T02:51:15.564Z,22.40
2023-03-05T02:53:42.349Z,22.40
2023-03-05T02:56:09.075Z,22.40
2023-03-05T02:58:35.833Z,22.40
2023-03-05T03:01:02.825Z,22.40
2023-03-05T03:03:29.715Z,22.40
2023-03-05T03:05:56.596Z,22.40
2023-03-05T03:08:23.289Z,22.50
2023-03-05T03:10:49.996Z,22.50
2023-03-05T03:13:16.911Z,22.50
2023-03-05T03:15:43.803Z,22.40
2023-03-05T03:18:10.509Z,22.50
2023-03-05T03:20:40.333Z,22.50
2023-03-05T03:23:07.492Z,22.50
2023-03-05T03:25:34.720Z,22.50
2023-03-05T03:28:01.430Z,22.50
2023-03-05T03:30:28.171Z,22.50
2023-03-05T03:32:54.965Z,22.50
2023-03-05T03:35:21.723Z,22.50
2023-03-05T03:37:48.868Z,22.50
2023-03-05T03:40:15.684Z,22.50
2023-03-05T03:42:42.389Z,22.50
2023-03-05T03:45:09.541Z,22.50
2023-03-05T03:47:36.234Z,22.60
2023-03-05T03:50:03.128Z,22.60
2023-03-05T03:52:29.904Z,22.60
2023-03-05T03:55:01.479Z,22.50
2023-03-05T03:57:30.171Z,22.60
2023-03-05T03:59:57.006Z,22.60
2023-03-05T04:02:23.901Z,22.60
2023-03-05T04:04:50.844Z,22.60
2023-03-05T04:07:17.881Z,22.60
2023-03-05T04:09:44.985Z,22.60
2023-03-05T04:12:11.902Z,22.60
2023-03-05T04:14:38.588Z,22.60
2023-03-05T04:17:05.320Z,22.60
2023-03-05T04:19:32.004Z,22.60
2023-03-05T04:21:59.057Z,22.60
2023-03-05T04:24:26.142Z,22.60
2023-03-05T04:26:52.878Z,22.60
2023-03-05T04:29:19.914Z,22.60
2023-03-05T04:31:46.605Z,22.70
2023-03-05T04:34:13.317Z,22.60
2023-03-05T04:36:40.127Z,22.70
2023-03-05T04:39:06.812Z,22.70
2023-03-05T04:41:33.564Z,22.70
2023-03-05T04:44:00.305Z,22.70
2023-03-05T04:46:27.166Z,22.60
2023-03-05T04:48:55.264Z,22.60
2023-03-05T04:51:21.956Z,22.60
2023-03-05T04:53:48.822Z,22.70
2023-03-05T04:56:16.042Z,22.70
2023-03-05T04:58:43.109Z,22.70
2023-03-05T05:01:09.846Z,22.70
2023-03-05T05:03:36.605Z,22.70
2023-03-05T05:06:03.718Z,22.70
2023-03-05T05:08:30.757Z,22.70
2023-03-05T05:11:02.779Z,22.70
2023-03-05T05:13:30.076Z,22.70
2023-03-05T05:15:57.448Z,22.70
2023-03-05T05:18:24.873Z,22.70
2023-03-05T05:20:51.633Z,22.70
2023-03-05T05:23:18.716Z,22.70
2023-03-05T05:25:45.765Z,22.70
2023-03-05T05:28:12.658Z,22.70
2023-03-05T05:30:39.619Z,22.70
2023-03-05T05:33:06.285Z,22.70
2023-03-05T05:35:33.263Z,22.70
2023-03-05T05:37:59.995Z,22.80
2023-03-05T05:40:26.750Z,22.70
2023-03-05T05:42:53.432Z,22.80
2023-03-05T05:45:20.189Z,22.70
2023-03-05T05:47:47.007Z,22.70
2023-03-05T05:50:14.601Z,22.70
2023-03-05T05:52:41.412Z,22.70
2023-03-05T05:55:08.611Z,22.70
2023-03-05T05:57:35.504Z,22.70
2023-03-05T06:00:03.713Z,22.70
2023-03-05T06:02:30.449Z,22.80
2023-03-05T06:04:58.327Z,22.80
2023-03-05T06:07:25.182Z,22.80
2023-03-05T06:09:51.857Z,22.80
2023-03-05T06:12:18.612Z,22.80
2023-03-05T06:14:45.301Z,22.80
2023-03-05T06:17:14.834Z,22.80
2023-03-05T06:19:43.732Z,22.80
2023-03-05T06:22:10.449Z,22.80
2023-03-05T06:24:38.198Z,22.80
2023-03-05T06:27:05.897Z,22.80
2023-03-05T06:29:33.123Z,22.80
2023-03-05T06:31:59.849Z,22.80
2023-03-05T06:34:26.540Z,22.80
2023-03-05T06:36:53.238Z,22.80
2023-03-05T06:39:19.971Z,22.80
2023-03-05T06:41:50.081Z,22.80
2023-03-05T06:44:16.798Z,22.70
2023-03-05T06:46:43.667Z,22.50
2023-03-05T06:49:11.675Z,22.30
2023-03-05T06:51:39.869Z,21.90
2023-03-05T06:54:12.450Z,21.60
2023-03-05T06:56:41.624Z,21.20
2023-03-05T06:59:08.942Z,20.90
2023-03-05T07:01:35.884Z,20.60
2023-03-05T07:04:03.251Z,20.40
2023-03-05T07:06:33.804Z,20.20
2023-03-05T07:09:01.374Z,20.00
2023-03-05T07:11:28.645Z,19.80
2023-03-05T07:13:55.582Z,19.60
2023-03-05T07:16:24.825Z,19.50
2023-03-05T07:18:52.721Z,19.30
2023-03-05T07:21:25.575Z,19.20
2023-03-05T07:23:56.745Z,19.00
2023-03-05T07:26:23.976Z,18.90
2023-03-05T07:28:50.692Z,18.80
2023-03-05T07:31:20.425Z,18.70
2023-03-05T07:33:50.432Z,18.60
2023-03-05T07:36:18.022Z,18.60
2023-03-05T07:38:44.901Z,18.50
2023-03-05T07:41:14.180Z,18.40
2023-03-05T07:43:41.176Z,18.40
2023-03-05T07:46:10.233Z,18.30
2023-03-05T07:48:37.562Z,18.30
2023-03-05T07:51:09.299Z,18.20
2023-03-05T07:53:36.303Z,18.20
2023-03-05T07:56:03.257Z,18.20
2023-03-05T07:58:30.073Z,18.10
2023-03-05T08:00:56.805Z,18.10
2023-03-05T08:03:23.483Z,18.10
2023-03-05T08:05:50.263Z,18.00
2023-03-05T08:08:17.105Z,18.00
2023-03-05T08:10:44.213Z,18.00
2023-03-05T08:13:10.954Z,18.00
2023-03-05T08:15:38.516Z,18.00
2023-03-05T08:18:05.343Z,17.90
2023-03-05T08:20:35.238Z,17.90
2023-03-05T08:23:03.245Z,17.90
2023-03-05T08:25:30.004Z,17.90
2023-03-05T08:27:56.940Z,17.90
2023-03-05T08:30:27.077Z,17.90
2023-03-05T08:32:54.305Z,17.90
2023-03-05T08:35:21.355Z,17.80
2023-03-05T08:37:48.500Z,17.80
2023-03-05T08:40:18.003Z,17.80
2023-03-05T08:42:45.245Z,17.80
2023-03-05T08:45:12.612Z,17.80
2023-03-05T08:47:39.553Z,17.70
2023-03-05T08:50:07.083Z,17.70
2023-03-05T08:52:34.574Z,17.80
2023-03-05T08:55:01.352Z,18.10
2023-03-05T08:57:28.113Z,18.30
2023-03-05T08:59:54.881Z,18.60
2023-03-05T09:02:21.641Z,18.90
2023-03-05T09:04:48.517Z,19.10
2023-03-05T09:07:15.206Z,19.30
2023-03-05T09:09:41.919Z,19.50
2023-03-05T09:12:12.056Z,19.70
2023-03-05T09:14:40.042Z,19.80
2023-03-05T09:17:06.865Z,20.00
2023-03-05T09:19:33.684Z,20.10
2023-03-05T09:22:00.480Z,20.20
2023-03-05T09:24:28.191Z,20.30
2023-03-05T09:26:59.225Z,20.50
2023-03-05T09:29:26.881Z,20.60
2023-03-05T09:31:53.856Z,20.70
2023-03-05T09:34:21.385Z,20.80
2023-03-05T09:36:48.199Z,20.90
2023-03-05T09:39:15.339Z,20.90
2023-03-05T09:42:10.368Z,21.00
2023-03-05T09:44:55.960Z,21.10
2023-03-05T09:47:44.386Z,21.10
2023-03-05T09:50:33.102Z,21.20
2023-03-05T09:53:06.158Z,21.30
2023-03-05T09:55:40.917Z,21.30
2023-03-05T09:58:16.159Z,21.40
2023-03-05T10:00:59.002Z,21.40
2023-03-05T10:03:28.251Z,21.40
2023-03-05T10:06:20.241Z,21.50
2023-03-05T10:08:57.150Z,21.50
2023-03-05T10:11:48.179Z,21.50
2023-03-05T10:14:39.677Z,21.50
2023-03-05T10:17:27.147Z,21.60
2023-03-05T10:20:23.037Z,21.60
2023-03-05T10:23:11.444Z,21.60
2023-03-05T10:25:50.190Z,21.60
2023-03-05T10:28:25.146Z,21.70
2023-03-05T10:31:13.629Z,21.70
2023-03-05T10:34:12.497Z,21.70
2023-03-05T10:37:14.151Z,21.70
2023-03-05T10:39:55.849Z,21.80
2023-03-05T10:42:31.011Z,21.80
2023-03-05T10:45:00.335Z,21.80
2023-03-05T10:47:49.886Z,21.80
2023-03-05T10:50:23.636Z,21.90
2023-03-05T10:53:07.511Z,21.90
2023-03-05T10:55:34.244Z,21.90
2023-03-05T10:58:10.098Z,21.90
2023-03-05T11:00:36.909Z,21.90
2023-03-05T11:03:07.933Z,21.90
2023-03-05T11:06:01.010Z,22.00
2023-03-05T11:08:27.718Z,21.90
2023-03-05T11:11:09.730Z,22.00
2023-03-05T11:13:40.758Z,21.90
2023-03-05T11:16:20.943Z,22.00
2023-03-05T11:18:48.409Z,22.00
2023-03-05T11:21:29.149Z,22.00
2023-03-05T11:24:10.926Z,22.00
2023-03-05T11:26:37.744Z,22.00
2023-03-05T11:29:09.892Z,22.00
2023-03-05T11:31:36.582Z,22.00
2023-03-05T11:34:18.267Z,22.00
2023-03-05T11:36:51.099Z,22.00
2023-03-05T11:39:20.913Z,22.10
2023-03-05T11:41:56.229Z,22.10
2023-03-05T11:44:28.334Z,22.10
2023-03-05T11:47:09.642Z,22.10
2023-03-05T11:49:44.015Z,22.20
2023-03-05T11:52:31.144Z,22.20
2023-03-05T11:55:10.956Z,22.10
2023-03-05T11:57:50.945Z,22.20
2023-03-05T12:00:24.513Z,22.20
2023-03-05T12:02:54.673Z,22.20
2023-03-05T12:05:21.906Z,22.20
2023-03-05T12:07:55.344Z,22.20
2023-03-05T12:10:25.443Z,22.00
2023-03-05T12:13:12.886Z,21.80
2023-03-05T12:15:47.622Z,21.60
2023-03-05T12:18:26.802Z,21.40
2023-03-05T12:21:17.897Z,21.20
2023-03-05T12:23:46.842Z,21.00
2023-03-05T12:26:13.816Z,20.80
2023-03-05T12:28:43.335Z,20.70
2023-03-05T12:31:10.117Z,20.60
2023-03-05T12:33:39.064Z,20.50
2023-03-05T12:36:17.777Z,20.30
2023-03-05T12:38:51.728Z,20.20
2023-03-05T12:41:34.458Z,20.10
2023-03-05T12:44:07.018Z,20.00
2023-03-05T12:46:44.714Z,19.90
2023-03-05T12:49:20.401Z,19.80
2023-03-05T12:51:49.427Z,19.70
2023-03-05T12:54:34.550Z,19.70
2023-03-05T12:57:15.058Z,19.80
2023-03-05T12:59:51.322Z,19.90
2023-03-05T13:02:43.220Z,20.10
2023-03-05T13:05:32.660Z,20.30
2023-03-05T13:08:22.241Z,20.50
2023-03-05T13:10:56.802Z,20.60
2023-03-05T13:13:26.518Z,20.70
2023-03-05T13:15:54.233Z,20.90
2023-03-05T13:18:29.689Z,21.00
2023-03-05T13:21:14.216Z,21.10
2023-03-05T13:23:50.235Z,21.10
2023-03-05T13:26:19.063Z,21.20
2023-03-05T13:29:13.977Z,21.30
2023-03-05T13:31:46.561Z,21.30
2023-03-05T13:34:46.200Z,21.40
2023-03-05T13:37:20.177Z,21.40
2023-03-05T13:40:01.892Z,21.50
2023-03-05T13:42:34.559Z,21.50
2023-03-05T13:45:06.726Z,21.50
2023-03-05T13:47:35.623Z,21.60
2023-03-05T13:50:06.888Z,21.60
2023-03-05T13:52:36.764Z,21.60
2023-03-05T13:55:11.949Z,21.70
2023-03-05T13:57:47.377Z,21.70
2023-03-05T14:00:34.097Z,21.70
2023-03-05T14:03:24.733Z,21.80
2023-03-05T14:05:51.635Z,21.80
2023-03-05T14:08:25.436Z,21.80
2023-03-05T14:10:54.146Z,21.80
2023-03-05T14:13:29.585Z,21.80
2023-03-05T14:16:11.326Z,21.80
2023-03-05T14:18:39.236Z,21.90
2023-03-05T14:21:09.517Z,21.90
2023-03-05T14:23:43.468Z,21.90
2023-03-05T14:26:22.146Z,21.90
2023-03-05T14:29:18.348Z,21.90
2023-03-05T14:31:50.800Z,21.90
2023-03-05T14:34:39.780Z,22.00
2023-03-05T14:37:23.215Z,21.90
2023-03-05T14:39:57.604Z,22.00
2023-03-05T14:42:31.700Z,22.00
2023-03-05T14:45:01.909Z,22.00
2023-03-05T14:47:29.617Z,22.00
2023-03-05T14:49:57.613Z,22.00
2023-03-05T14:52:25.585Z,22.00
2023-03-05T14:54:53.788Z,22.10
2023-03-05T14:57:25.207Z,22.10
2023-03-05T14:59:52.202Z,22.00
2023-03-05T15:02:21.382Z,22.00
2023-03-05T15:04:48.290Z,22.10
2023-03-05T15:07:29.952Z,22.00
2023-03-05T15:09:57.556Z,22.10
2023-03-05T15:12:24.818Z,22.10
2023-03-05T15:14:56.137Z,22.10
2023-03-05T15:17:51.770Z,22.10
2023-03-05T15:20:24.963Z,22.10
2023-03-05T15:22:52.160Z,22.10
2023-03-05T15:25:20.598Z,22.10
2023-03-05T15:27:47.677Z,22.10
2023-03-05T15:30:21.074Z,22.10
2023-03-05T15:32:47.958Z,22.10
2023-03-05T15:35:14.718Z,22.10
2023-03-05T15:37:41.442Z,22.10
2023-03-05T15:40:08.925Z,22.20
2023-03-05T15:42:35.658Z,22.20
2023-03-05T15:45:02.395Z,22.10
2023-03-05T15:47:31.167Z,22.10
2023-03-05T15:49:59.196Z,22.20
2023-03-05T15:52:25.987Z,22.20
2023-03-05T15:54:52.692Z,22.10
2023-03-05T15:57:23.667Z,22.20
2023-03-05T15:59:50.374Z,22.20
2023-03-05T16:02:18.736Z,22.20
2023-03-05T16:04:45.551Z,22.20
2023-03-05T16:07:15.128Z,22.20
2023-03-05T16:09:45.808Z,22.20
2023-03-05T16:12:18.177Z,22.20
2023-03-05T16:14:45.740Z,22.20
2023-03-05T16:17:15.349Z,22.20
2023-03-05T16:19:46.108Z,22.20
2023-03-05T16:22:12.920Z,22.20
2023-03-05T16:24:39.632Z,22.20
2023-03-05T16:27:06.798Z,22.20
2023-03-05T16:29:33.874Z,22.20
2023-03-05T16:32:02.552Z,22.20
2023-03-05T16:34:29.455Z,22.30
2023-03-05T16:36:56.201Z,22.30
2023-03-05T16:39:23.293Z,22.30
2023-03-05T16:41:50.588Z,22.30
2023-03-05T16:44:17.303Z,22.20
2023-03-05T16:46:49.090Z,22.30
2023-03-05T16:49:16.669Z,22.30
2023-03-05T16:51:43.353Z,22.30
2023-03-05T16:54:10.284Z,22.30
2023-03-05T16:56:37.330Z,22.30
2023-03-05T16:59:04.258Z,22.30
2023-03-05T17:01:31.214Z,22.30
2023-03-05T17:03:59.844Z,22.30
2023-03-05T17:06:29.652Z,22.30
2023-03-05T17:08:57.486Z,22.30
2023-03-05T17:11:25.723Z,22.40
2023-03-05T17:13:52.594Z,22.30
2023-03-05T17:16:20.349Z,22.40
2023-03-05T17:18:47.629Z,22.40
2023-03-05T17:21:15.198Z,22.40
2023-03-05T17:23:42.003Z,22.40
2023-03-05T17:26:12.549Z,22.40
2023-03-05T17:28:39.891Z,22.40
2023-03-05T17:31:06.999Z,22.40
2023-03-05T17:33:34.911Z,22.50
2023-03-05T17:36:01.791Z,22.50
2023-03-05T17:38:29.121Z,22.50
2023-03-05T17:40:56.060Z,22.50
2023-03-05T17:43:23.207Z,22.50
2023-03-05T17:45:50.109Z,22.40
2023-03-05T17:48:16.880Z,22.50
2023-03-05T17:50:44.958Z,22.40
2023-03-05T17:53:12.074Z,22.40
2023-03-05T17:55:39.946Z,22.40
2023-03-05T17:58:06.870Z,22.40
2023-03-05T18:00:33.936Z,22.40
2023-03-05T18:03:00.651Z,22.40
2023-03-05T18:05:28.286Z,22.40
2023-03-05T18:07:55.517Z,22.40
2023-03-05T18:10:24.638Z,22.40
2023-03-05T18:12:51.726Z,22.40
2023-03-05T18:15:21.360Z,22.40
2023-03-05T18:17:48.060Z,22.50
2023-03-05T18:20:31.074Z,22.50
2023-03-05T18:22:59.078Z,22.50
2023-03-05T18:25:30.856Z,22.50
2023-03-05T18:28:02.752Z,22.50
2023-03-05T18:30:31.141Z,22.50
2023-03-05T18:32:58.251Z,22.50
2023-03-05T18:35:25.095Z,22.60
2023-03-05T18:37:51.963Z,22.60
2023-03-05T18:40:22.291Z,22.60
2023-03-05T18:42:49.718Z,22.60
2023-03-05T18:45:18.639Z,22.60
2023-03-05T18:47:46.846Z,22.60
2023-03-05T18:50:16.737Z,22.60
2023-03-05T18:52:43.521Z,22.60
2023-03-05T18:55:36.752Z,22.60
2023-03-05T18:58:03.664Z,22.60
2023-03-05T19:00:32.019Z,22.70
2023-03-05T19:02:59.132Z,22.70
2023-03-05T19:05:26.946Z,22.70
2023-03-05T19:07:54.331Z,22.70
2023-03-05T19:10:22.692Z,22.70
2023-03-05T19:13:25.026Z,22.70
2023-03-05T19:15:52.464Z,22.70
2023-03-05T19:19:15.339Z,22.80
2023-03-05T19:21:59.649Z,22.80
2023-03-05T19:24:29.458Z,22.70
2023-03-05T19:27:00.210Z,22.80
2023-03-05T19:29:32.797Z,22.80
2023-03-05T19:31:59.691Z,22.80
2023-03-05T19:34:26.458Z,22.80
2023-03-05T19:36:53.197Z,22.80
2023-03-05T19:39:19.977Z,22.80
2023-03-05T19:41:46.730Z,22.80
2023-03-05T19:44:13.735Z,22.80
2023-03-05T19:46:41.911Z,22.80
2023-03-05T19:49:08.745Z,22.90
2023-03-05T19:51:35.960Z,22.90
2023-03-05T19:54:04.398Z,22.90
2023-03-05T19:56:31.147Z,22.80
2023-03-05T19:58:57.970Z,22.90
2023-03-05T20:01:26.654Z,22.90
2023-03-05T20:03:55.658Z,22.90
2023-03-05T20:06:23.296Z,22.90
2023-03-05T20:08:50.448Z,22.90
2023-03-05T20:11:19.084Z,22.90
2023-03-05T20:13:46.162Z,22.90
2023-03-05T20:16:17.043Z,22.90
2023-03-05T20:18:44.667Z,22.90
2023-03-05T20:21:12.151Z,22.90
2023-03-05T20:23:40.041Z,22.90
2023-03-05T20:26:06.954Z,22.90
2023-03-05T20:28:34.406Z,22.90
2023-03-05T20:31:01.719Z,23.00
2023-03-05T20:33:29.652Z,23.00
2023-03-05T20:35:56.628Z,23.00
2023-03-05T20:38:25.310Z,23.00
2023-03-05T20:40:54.399Z,23.00
2023-03-05T20:43:24.311Z,23.00
2023-03-05T20:45:53.665Z,23.00
2023-03-05T20:48:20.980Z,23.00
2023-03-05T20:50:47.767Z,23.00
2023-03-05T20:53:14.935Z,23.00
2023-03-05T20:55:42.811Z,23.00
2023-03-05T20:58:09.936Z,23.00
2023-03-05T21:00:37.356Z,23.00
2023-03-05T21:03:04.497Z,23.00
2023-03-05T21:05:31.748Z,23.00
2023-03-05T21:08:00.490Z,23.10
2023-03-05T21:10:27.529Z,23.00
2023-03-05T21:12:54.991Z,23.00
2023-03-05T21:15:25.691Z,23.00
2023-03-05T21:17:52.901Z,23.10
2023-03-05T21:20:24.665Z,23.10
2023-03-05T21:22:51.350Z,23.20
2023-03-05T21:25:23.152Z,23.10
2023-03-05T21:28:00.468Z,23.10
2023-03-05T21:30:39.241Z,23.20
2023-03-05T21:33:11.774Z,23.20
2023-03-05T21:35:39.167Z,23.20
2023-03-05T21:38:07.744Z,23.20
2023-03-05T21:40:36.029Z,23.00
2023-03-05T21:43:03.718Z,22.80
2023-03-05T21:45:30.911Z,22.40
2023-03-05T21:47:59.122Z,22.10
2023-03-05T21:50:26.506Z,21.90
2023-03-05T21:52:54.178Z,21.80
2023-03-05T21:55:58.545Z,21.90
2023-03-05T21:58:25.252Z,22.00
2023-03-05T22:00:52.212Z,22.10
2023-03-05T22:03:18.982Z,22.30
2023-03-05T22:05:45.857Z,22.40
2023-03-05T22:08:12.554Z,22.40
2023-03-05T22:10:41.325Z,22.50
2023-03-05T22:13:10.304Z,22.60
2023-03-05T22:15:54.986Z,22.60
2023-03-05T22:18:27.089Z,22.70
2023-03-05T22:20:54.706Z,22.80
2023-03-05T22:23:23.731Z,22.80
2023-03-05T22:26:02.486Z,22.80
2023-03-05T22:28:29.573Z,22.90
2023-03-05T22:30:56.753Z,22.90
2023-03-05T22:33:23.996Z,22.90
2023-03-05T22:35:50.901Z,22.90
2023-03-05T22:38:18.153Z,22.90
2023-03-05T22:40:47.157Z,23.00
2023-03-05T22:43:15.106Z,23.00
2023-03-05T22:45:42.076Z,23.00
2023-03-05T22:48:12.562Z,23.00
2023-03-05T22:50:41.230Z,23.10
2023-03-05T22:53:08.413Z,23.10
2023-03-05T22:55:41.422Z,23.00
2023-03-05T22:58:08.227Z,23.10
2023-03-05T23:00:34.983Z,23.10
2023-03-05T23:03:01.926Z,23.00
2023-03-05T23:05:28.835Z,23.00
2023-03-05T23:07:55.546Z,23.00
2023-03-05T23:10:26.924Z,23.10
2023-03-05T23:12:55.178Z,23.10
2023-03-05T23:15:28.946Z,23.10
2023-03-05T23:17:55.986Z,23.10
2023-03-05T23:20:27.175Z,23.10
2023-03-05T23:22:56.056Z,23.10
2023-03-05T23:25:26.171Z,23.10
2023-03-05T23:27:53.502Z,23.10
2023-03-05T23:30:22.783Z,23.10
2023-03-05T23:33:02.650Z,23.10
2023-03-05T23:35:54.748Z,23.10
2023-03-05T23:38:22.350Z,23.20
2023-03-05T23:40:53.744Z,23.10
2023-03-05T23:43:22.642Z,23.10
2023-03-05T23:45:49.802Z,23.20
2023-03-05T23:48:17.295Z,23.10
2023-03-05T23:50:45.823Z,23.10
2023-03-05T23:53:26.108Z,23.20
2023-03-05T23:55:53.633Z,23.20
2023-03-05T23:58:21.253Z,23.20
